TimeEST,TemperatureF,Dew PointF,Humidity,Sea Level PressureIn,VisibilityMPH,Wind Direction,Wind SpeedMPH,Gust SpeedMPH,PrecipitationIn,Events,Conditions,WindDirDegrees,DateUTC
12:53 AM,55.0,48.9,80,29.96,10.0,South,3.5,-,N/A,,Mostly Cloudy,170,2012-12-08 05:53:00
1:53 AM,54.0,50.0,86,29.96,10.0,Calm,Calm,-,N/A,,Overcast,0,2012-12-08 06:53:00
2:53 AM,53.1,48.9,86,29.95,10.0,Calm,Calm,-,N/A,,Mostly Cloudy,0,2012-12-08 07:53:00
3:53 AM,54.0,48.9,83,29.95,10.0,Calm,Calm,-,N/A,,Overcast,0,2012-12-08 08:53:00
4:53 AM,53.1,48.9,86,29.95,10.0,Calm,Calm,-,N/A,,Overcast,0,2012-12-08 09:53:00
5:53 AM,53.6,48.2,82,29.98,10.0,Calm,Calm,-,N/A,,Overcast,0,2012-12-08 10:53:00
6:18 AM,53.6,48.2,82,29.99,10.0,Calm,Calm,-,0.00,Rain,Light Rain,0,2012-12-08 11:18:00
6:53 AM,53.1,48.9,86,29.98,10.0,Calm,Calm,-,0.00,,Overcast,0,2012-12-08 11:53:00
7:53 AM,53.1,48.9,86,29.98,6.0,Calm,Calm,-,N/A,,Mostly Cloudy,0,2012-12-08 12:53:00
8:53 AM,55.9,50.0,80,29.99,6.0,WSW,4.6,-,N/A,,Haze,250,2012-12-08 13:53:00
9:24 AM,55.4,50.0,82,30.00,6.0,West,4.6,-,N/A,,Haze,270,2012-12-08 14:24:00
9:53 AM,57.9,51.1,78,30.00,7.0,West,4.6,-,N/A,,Mostly Cloudy,280,2012-12-08 14:53:00
10:32 AM,60.8,51.8,72,30.01,7.0,SSW,5.8,-,N/A,,Mostly Cloudy,200,2012-12-08 15:32:00
10:53 AM,63.0,53.1,70,29.99,7.0,SSW,10.4,-,N/A,,Mostly Cloudy,200,2012-12-08 15:53:00
11:53 AM,66.9,54.0,63,29.96,10.0,SW,15.0,-,N/A,,Scattered Clouds,220,2012-12-08 16:53:00
12:53 PM,70.0,53.1,55,29.94,10.0,SW,16.1,24.2,N/A,,Scattered Clouds,230,2012-12-08 17:53:00
1:53 PM,69.1,53.1,57,29.93,10.0,SW,16.1,24.2,N/A,,Mostly Cloudy,220,2012-12-08 18:53:00
2:53 PM,68.0,52.0,56,29.93,10.0,WSW,9.2,-,N/A,,Scattered Clouds,240,2012-12-08 19:53:00
3:53 PM,66.9,52.0,59,29.92,10.0,SW,15.0,-,N/A,,Scattered Clouds,220,2012-12-08 20:53:00
4:53 PM,64.9,53.1,65,29.93,10.0,SW,12.7,-,N/A,,Partly Cloudy,230,2012-12-08 21:53:00
5:53 PM,63.0,52.0,67,29.94,10.0,WSW,10.4,-,N/A,,Scattered Clouds,250,2012-12-08 22:53:00
6:53 PM,59.0,51.1,75,29.96,10.0,WSW,5.8,-,N/A,,Scattered Clouds,240,2012-12-08 23:53:00
7:53 PM,57.2,51.8,82,29.98,10.0,SSE,3.5,-,N/A,,Clear,160,2012-12-09 00:53:00
8:53 PM,57.0,53.1,87,29.99,10.0,SW,9.2,-,N/A,,Mostly Cloudy,230,2012-12-09 01:53:00
9:53 PM,59.0,55.0,87,29.98,10.0,SSW,8.1,-,N/A,,Overcast,210,2012-12-09 02:53:00
10:53 PM,59.0,55.0,87,29.99,10.0,SW,5.8,-,N/A,,Overcast,230,2012-12-09 03:53:00
11:05 PM,57.2,55.4,94,30.00,10.0,SSW,3.5,-,N/A,,Overcast,200,2012-12-09 04:05:00
11:24 PM,59.0,55.4,88,30.00,10.0,SW,3.5,-,N/A,,Overcast,220,2012-12-09 04:24:00
11:53 PM,57.9,55.0,90,29.99,10.0,SSW,3.5,-,N/A,,Overcast,200,2012-12-09 04:53:00